PWSweather.com
Personal Weather Stations
Station Observations
ITROMSHA6
HarstadNO 9407

HarstadNO 9407

Lat: 68.7814767, Lon: 16.5297091

Elevation: 145

Station Type: Davis Vantage Pro2

High Low Average
Temperature 33.3°F0.7°C 27.0°F-2.8°C 30.8°F-0.7°C
Dew Point 31.5°F-0.3°C 22.3°F-5.4°C 28.1°F-2.2°C
Winds 11.0 mph 17.7 kmh Calm Calm 3.0 mph WSW4.8 kmh WSW
Wind Gusts 12.0 mph19.3 kmh -- 1.0 mph1.6 kmh
Humidity 93% 82% 89%
Pressure 29.77 in1008.1 mb 29.56 in1001.0 mb -
Precipitation 0.00 in0.0 mm - -
Hour Temp Dew Point Humidity Winds Wind Gusts Pressure Precip Precip Rate Daily Precip Total
12:00 AM 34.0°F1.1°C 31.3°F-0.4°C 90% Calm Calm -- 29.77 in1008.1 mb 0.00 in0.0 mm 0.00 in0.0 mm 0.00 in0.0 mm
12:05 AM 33.6°F0.9°C 30.9°F-0.6°C 90% 2.0 mph SW3.2 kmh SW -- 29.77 in1008.1 mb 0.00 in0.0 mm 0.00 in0.0 mm 0.00 in0.0 mm
12:10 AM 33.1°F0.6°C 30.6°F-0.8°C 90% Calm Calm 3.0 mph4.8 kmh 29.77 in1008.1 mb 0.00 in0.0 mm 0.00 in0.0 mm 0.00 in0.0 mm
12:15 AM 32.4°F0.2°C 29.5°F-1.4°C 89% 2.0 mph SW3.2 kmh SW -- 29.77 in1008.1 mb 0.00 in0.0 mm 0.00 in0.0 mm 0.00 in0.0 mm
12:20 AM 31.5°F-0.3°C 28.9°F-1.7°C 90% 3.0 mph SW4.8 kmh SW -- 29.77 in1008.1 mb 0.00 in0.0 mm 0.00 in0.0 mm 0.00 in0.0 mm
12:25 AM 31.3°F-0.4°C 28.9°F-1.7°C 91% 3.0 mph SW4.8 kmh SW -- 29.77 in1008.1 mb 0.00 in0.0 mm 0.00 in0.0 mm 0.00 in0.0 mm
12:30 AM 30.8°F-0.7°C 28.4°F-2.0°C 91% 2.0 mph SW3.2 kmh SW -- 29.77 in1008.1 mb 0.00 in0.0 mm 0.00 in0.0 mm 0.00 in0.0 mm
12:35 AM 31.4°F-0.3°C 29.5°F-1.4°C 92% 3.0 mph WSW4.8 kmh WSW 4.0 mph6.4 kmh 29.77 in1008.1 mb 0.00 in0.0 mm 0.00 in0.0 mm 0.00 in0.0 mm
12:40 AM 31.6°F-0.2°C 29.7°F-1.3°C 92% 1.0 mph WSW1.6 kmh WSW -- 29.77 in1008.1 mb 0.00 in0.0 mm 0.00 in0.0 mm 0.00 in0.0 mm
12:45 AM 31.6°F-0.2°C 29.7°F-1.3°C 92% 2.0 mph WSW3.2 kmh WSW -- 29.78 in1008.5 mb 0.00 in0.0 mm 0.00 in0.0 mm 0.00 in0.0 mm
12:50 AM 31.8°F-0.1°C 29.8°F-1.2°C 92% 1.0 mph WSW1.6 kmh WSW -- 29.78 in1008.5 mb 0.00 in0.0 mm 0.00 in0.0 mm 0.00 in0.0 mm
12:55 AM 32.3°F0.2°C 30.6°F-0.8°C 93% 1.0 mph SW1.6 kmh SW -- 29.78 in1008.5 mb 0.00 in0.0 mm 0.00 in0.0 mm 0.00 in0.0 mm
01:00 AM 32.5°F0.3°C 30.7°F-0.7°C 93% 1.0 mph S1.6 kmh S 3.0 mph4.8 kmh 29.77 in1008.1 mb 0.00 in0.0 mm 0.00 in0.0 mm 0.00 in0.0 mm
01:05 AM 32.8°F0.4°C 30.9°F-0.6°C 93% 4.0 mph SSW6.4 kmh SSW -- 29.77 in1008.1 mb 0.00 in0.0 mm 0.00 in0.0 mm 0.00 in0.0 mm
01:10 AM 33.1°F0.6°C 31.3°F-0.4°C 93% 4.0 mph S6.4 kmh S -- 29.77 in1008.1 mb 0.00 in0.0 mm 0.00 in0.0 mm 0.00 in0.0 mm
01:15 AM 33.3°F0.7°C 31.5°F-0.3°C 93% 1.0 mph WSW1.6 kmh WSW -- 29.77 in1008.1 mb 0.00 in0.0 mm 0.00 in0.0 mm 0.00 in0.0 mm
01:20 AM 33.2°F0.7°C 31.5°F-0.3°C 93% 2.0 mph SW3.2 kmh SW -- 29.77 in1008.1 mb 0.00 in0.0 mm 0.00 in0.0 mm 0.00 in0.0 mm
01:25 AM 33.0°F0.6°C 31.1°F-0.5°C 92% 2.0 mph SW3.2 kmh SW 4.0 mph6.4 kmh 29.77 in1008.1 mb 0.00 in0.0 mm 0.00 in0.0 mm 0.00 in0.0 mm
01:30 AM 32.7°F0.4°C 30.7°F-0.7°C 92% Calm Calm -- 29.77 in1008.1 mb 0.00 in0.0 mm 0.00 in0.0 mm 0.00 in0.0 mm
01:35 AM 32.3°F0.2°C 30.4°F-0.9°C 92% 1.0 mph SW1.6 kmh SW -- 29.77 in1008.1 mb 0.00 in0.0 mm 0.00 in0.0 mm 0.00 in0.0 mm
01:40 AM 31.9°F-0.1°C 29.8°F-1.2°C 92% Calm Calm -- 29.77 in1008.1 mb 0.00 in0.0 mm 0.00 in0.0 mm 0.00 in0.0 mm
01:45 AM 31.8°F-0.1°C 29.8°F-1.2°C 92% Calm Calm -- 29.77 in1008.1 mb 0.00 in0.0 mm 0.00 in0.0 mm 0.00 in0.0 mm
01:50 AM 31.2°F-0.4°C 28.9°F-1.7°C 91% Calm Calm 3.0 mph4.8 kmh 29.77 in1008.1 mb 0.00 in0.0 mm 0.00 in0.0 mm 0.00 in0.0 mm
01:55 AM 30.7°F-0.7°C 28.4°F-2.0°C 91% 1.0 mph NW1.6 kmh NW -- 29.77 in1008.1 mb 0.00 in0.0 mm 0.00 in0.0 mm 0.00 in0.0 mm
02:00 AM 30.3°F-0.9°C 28.0°F-2.2°C 91% 2.0 mph SW3.2 kmh SW -- 29.77 in1008.1 mb 0.00 in0.0 mm 0.00 in0.0 mm 0.00 in0.0 mm
02:05 AM 29.8°F-1.2°C 27.5°F-2.5°C 91% 3.0 mph SW4.8 kmh SW -- 29.77 in1008.1 mb 0.00 in0.0 mm 0.00 in0.0 mm 0.00 in0.0 mm
02:10 AM 29.9°F-1.2°C 27.9°F-2.3°C 92% 3.0 mph SW4.8 kmh SW -- 29.77 in1008.1 mb 0.00 in0.0 mm 0.00 in0.0 mm 0.00 in0.0 mm
02:15 AM 30.2°F-1.0°C 28.2°F-2.1°C 92% 3.0 mph SW4.8 kmh SW 4.0 mph6.4 kmh 29.77 in1008.1 mb 0.00 in0.0 mm 0.00 in0.0 mm 0.00 in0.0 mm
02:20 AM 30.6°F-0.8°C 28.2°F-2.1°C 91% 2.0 mph SW3.2 kmh SW -- 29.77 in1008.1 mb 0.00 in0.0 mm 0.00 in0.0 mm 0.00 in0.0 mm
02:25 AM 30.7°F-0.7°C 28.4°F-2.0°C 91% 2.0 mph SW3.2 kmh SW -- 29.77 in1008.1 mb 0.00 in0.0 mm 0.00 in0.0 mm 0.00 in0.0 mm
02:30 AM 30.7°F-0.7°C 28.2°F-2.1°C 90% 2.0 mph SW3.2 kmh SW -- 29.77 in1008.1 mb 0.00 in0.0 mm 0.00 in0.0 mm 0.00 in0.0 mm
02:35 AM 30.8°F-0.7°C 28.2°F-2.1°C 90% 1.0 mph SW1.6 kmh SW -- 29.77 in1008.1 mb 0.00 in0.0 mm 0.00 in0.0 mm 0.00 in0.0 mm
02:40 AM 31.0°F-0.6°C 28.4°F-2.0°C 90% Calm Calm 3.0 mph4.8 kmh 29.77 in1008.1 mb 0.00 in0.0 mm 0.00 in0.0 mm 0.00 in0.0 mm
02:45 AM 31.7°F-0.2°C 29.3°F-1.5°C 91% Calm Calm -- 29.77 in1008.1 mb 0.00 in0.0 mm 0.00 in0.0 mm 0.00 in0.0 mm
02:50 AM 32.2°F0.1°C 29.3°F-1.5°C 89% Calm Calm -- 29.77 in1008.1 mb 0.00 in0.0 mm 0.00 in0.0 mm 0.00 in0.0 mm
02:55 AM 32.2°F0.1°C 29.3°F-1.5°C 89% 1.0 mph SW1.6 kmh SW -- 29.77 in1008.1 mb 0.00 in0.0 mm 0.00 in0.0 mm 0.00 in0.0 mm
03:00 AM 32.3°F0.2°C 29.8°F-1.2°C 90% 3.0 mph SW4.8 kmh SW -- 29.77 in1008.1 mb 0.00 in0.0 mm 0.00 in0.0 mm 0.00 in0.0 mm
03:05 AM 32.4°F0.2°C 29.8°F-1.2°C 90% 6.0 mph SW9.7 kmh SW 7.0 mph11.3 kmh 29.77 in1008.1 mb 0.00 in0.0 mm 0.00 in0.0 mm 0.00 in0.0 mm
03:10 AM 32.4°F0.2°C 29.8°F-1.2°C 90% 3.0 mph WSW4.8 kmh WSW -- 29.77 in1008.1 mb 0.00 in0.0 mm 0.00 in0.0 mm 0.00 in0.0 mm
03:15 AM 32.4°F0.2°C 29.8°F-1.2°C 90% 4.0 mph WSW6.4 kmh WSW -- 29.77 in1008.1 mb 0.00 in0.0 mm 0.00 in0.0 mm 0.00 in0.0 mm
03:20 AM 32.5°F0.3°C 30.0°F-1.1°C 90% 2.0 mph SW3.2 kmh SW -- 29.77 in1008.1 mb 0.00 in0.0 mm 0.00 in0.0 mm 0.00 in0.0 mm
03:25 AM 32.5°F0.3°C 30.0°F-1.1°C 90% 3.0 mph WSW4.8 kmh WSW -- 29.77 in1008.1 mb 0.00 in0.0 mm 0.00 in0.0 mm 0.00 in0.0 mm
03:30 AM 32.5°F0.3°C 30.0°F-1.1°C 90% 2.0 mph SW3.2 kmh SW 4.0 mph6.4 kmh 29.77 in1008.1 mb 0.00 in0.0 mm 0.00 in0.0 mm 0.00 in0.0 mm
03:35 AM 32.6°F0.3°C 30.0°F-1.1°C 90% 2.0 mph SW3.2 kmh SW -- 29.76 in1007.8 mb 0.00 in0.0 mm 0.00 in0.0 mm 0.00 in0.0 mm
03:40 AM 32.6°F0.3°C 30.0°F-1.1°C 90% 2.0 mph SW3.2 kmh SW -- 29.76 in1007.8 mb 0.00 in0.0 mm 0.00 in0.0 mm 0.00 in0.0 mm
03:45 AM 32.6°F0.3°C 30.0°F-1.1°C 90% 4.0 mph SW6.4 kmh SW -- 29.76 in1007.8 mb 0.00 in0.0 mm 0.00 in0.0 mm 0.00 in0.0 mm
03:50 AM 32.6°F0.3°C 30.0°F-1.1°C 90% 2.0 mph SW3.2 kmh SW -- 29.76 in1007.8 mb 0.00 in0.0 mm 0.00 in0.0 mm 0.00 in0.0 mm
03:55 AM 32.6°F0.3°C 30.0°F-1.1°C 90% 3.0 mph SW4.8 kmh SW 6.0 mph9.7 kmh 29.76 in1007.8 mb 0.00 in0.0 mm 0.00 in0.0 mm 0.00 in0.0 mm
04:00 AM 32.4°F0.2°C 29.8°F-1.2°C 90% 2.0 mph WSW3.2 kmh WSW -- 29.75 in1007.5 mb 0.00 in0.0 mm 0.00 in0.0 mm 0.00 in0.0 mm
04:05 AM 32.0°F0.0°C 29.5°F-1.4°C 90% 4.0 mph WSW6.4 kmh WSW -- 29.75 in1007.5 mb 0.00 in0.0 mm 0.00 in0.0 mm 0.00 in0.0 mm
04:10 AM 31.5°F-0.3°C 28.9°F-1.7°C 90% 3.0 mph WSW4.8 kmh WSW -- 29.75 in1007.5 mb 0.00 in0.0 mm 0.00 in0.0 mm 0.00 in0.0 mm
04:15 AM 31.1°F-0.5°C 28.6°F-1.9°C 90% 3.0 mph WSW4.8 kmh WSW -- 29.75 in1007.5 mb 0.00 in0.0 mm 0.00 in0.0 mm 0.00 in0.0 mm
04:20 AM 30.7°F-0.7°C 28.2°F-2.1°C 90% 2.0 mph WSW3.2 kmh WSW 5.0 mph8.0 kmh 29.75 in1007.5 mb 0.00 in0.0 mm 0.00 in0.0 mm 0.00 in0.0 mm
04:25 AM 30.5°F-0.8°C 28.0°F-2.2°C 90% 4.0 mph W6.4 kmh W -- 29.75 in1007.5 mb 0.00 in0.0 mm 0.00 in0.0 mm 0.00 in0.0 mm
04:30 AM 30.5°F-0.8°C 28.2°F-2.1°C 91% 4.0 mph W6.4 kmh W -- 29.75 in1007.5 mb 0.00 in0.0 mm 0.00 in0.0 mm 0.00 in0.0 mm
04:35 AM 30.6°F-0.8°C 28.2°F-2.1°C 91% 2.0 mph WSW3.2 kmh WSW -- 29.75 in1007.5 mb 0.00 in0.0 mm 0.00 in0.0 mm 0.00 in0.0 mm
04:40 AM 30.4°F-0.9°C 27.9°F-2.3°C 90% 2.0 mph WSW3.2 kmh WSW -- 29.75 in1007.5 mb 0.00 in0.0 mm 0.00 in0.0 mm 0.00 in0.0 mm
04:45 AM 30.2°F-1.0°C 27.9°F-2.3°C 91% 2.0 mph WSW3.2 kmh WSW 4.0 mph6.4 kmh 29.75 in1007.5 mb 0.00 in0.0 mm 0.00 in0.0 mm 0.00 in0.0 mm
04:50 AM 30.1°F-1.1°C 27.7°F-2.4°C 91% 1.0 mph WSW1.6 kmh WSW -- 29.75 in1007.5 mb 0.00 in0.0 mm 0.00 in0.0 mm 0.00 in0.0 mm
04:55 AM 30.2°F-1.0°C 27.9°F-2.3°C 91% Calm Calm -- 29.75 in1007.5 mb 0.00 in0.0 mm 0.00 in0.0 mm 0.00 in0.0 mm
05:00 AM 30.3°F-0.9°C 27.9°F-2.3°C 90% Calm Calm -- 29.75 in1007.5 mb 0.00 in0.0 mm 0.00 in0.0 mm 0.00 in0.0 mm
05:05 AM 29.5°F-1.4°C 26.6°F-3.0°C 89% 2.0 mph WSW3.2 kmh WSW -- 29.74 in1007.1 mb 0.00 in0.0 mm 0.00 in0.0 mm 0.00 in0.0 mm
05:10 AM 29.7°F-1.3°C 27.1°F-2.7°C 90% 2.0 mph WSW3.2 kmh WSW 3.0 mph4.8 kmh 29.74 in1007.1 mb 0.00 in0.0 mm 0.00 in0.0 mm 0.00 in0.0 mm
05:15 AM 29.3°F-1.5°C 26.8°F-2.9°C 90% 3.0 mph WSW4.8 kmh WSW -- 29.74 in1007.1 mb 0.00 in0.0 mm 0.00 in0.0 mm 0.00 in0.0 mm
05:20 AM 28.7°F-1.8°C 26.2°F-3.2°C 90% 4.0 mph WSW6.4 kmh WSW -- 29.75 in1007.5 mb 0.00 in0.0 mm 0.00 in0.0 mm 0.00 in0.0 mm
05:25 AM 28.5°F-1.9°C 26.2°F-3.2°C 91% 3.0 mph SW4.8 kmh SW -- 29.75 in1007.5 mb 0.00 in0.0 mm 0.00 in0.0 mm 0.00 in0.0 mm
05:30 AM 28.3°F-2.1°C 25.9°F-3.4°C 91% 5.0 mph WSW8.0 kmh WSW -- 29.74 in1007.1 mb 0.00 in0.0 mm 0.00 in0.0 mm 0.00 in0.0 mm
05:35 AM 28.7°F-1.8°C 26.4°F-3.1°C 91% 5.0 mph WSW8.0 kmh WSW 6.0 mph9.7 kmh 29.74 in1007.1 mb 0.00 in0.0 mm 0.00 in0.0 mm 0.00 in0.0 mm
05:40 AM 28.7°F-1.8°C 26.4°F-3.1°C 91% 4.0 mph WSW6.4 kmh WSW -- 29.74 in1007.1 mb 0.00 in0.0 mm 0.00 in0.0 mm 0.00 in0.0 mm
05:45 AM 29.1°F-1.6°C 26.8°F-2.9°C 91% 3.0 mph WSW4.8 kmh WSW -- 29.74 in1007.1 mb 0.00 in0.0 mm 0.00 in0.0 mm 0.00 in0.0 mm
05:50 AM 29.4°F-1.4°C 27.1°F-2.7°C 91% 2.0 mph WSW3.2 kmh WSW -- 29.74 in1007.1 mb 0.00 in0.0 mm 0.00 in0.0 mm 0.00 in0.0 mm
05:55 AM 29.5°F-1.4°C 27.1°F-2.7°C 91% 3.0 mph WSW4.8 kmh WSW -- 29.74 in1007.1 mb 0.00 in0.0 mm 0.00 in0.0 mm 0.00 in0.0 mm
06:00 AM 30.0°F-1.1°C 27.7°F-2.4°C 91% 2.0 mph WSW3.2 kmh WSW 6.0 mph9.7 kmh 29.74 in1007.1 mb 0.00 in0.0 mm 0.00 in0.0 mm 0.00 in0.0 mm
06:05 AM 30.5°F-0.8°C 28.2°F-2.1°C 91% 3.0 mph WSW4.8 kmh WSW -- 29.74 in1007.1 mb 0.00 in0.0 mm 0.00 in0.0 mm 0.00 in0.0 mm
06:10 AM 30.8°F-0.7°C 28.4°F-2.0°C 91% 2.0 mph WSW3.2 kmh WSW -- 29.74 in1007.1 mb 0.00 in0.0 mm 0.00 in0.0 mm 0.00 in0.0 mm
06:15 AM 31.0°F-0.6°C 28.6°F-1.9°C 91% 1.0 mph SW1.6 kmh SW -- 29.74 in1007.1 mb 0.00 in0.0 mm 0.00 in0.0 mm 0.00 in0.0 mm
06:20 AM 31.1°F-0.5°C 28.8°F-1.8°C 91% 1.0 mph SW1.6 kmh SW -- 29.74 in1007.1 mb 0.00 in0.0 mm 0.00 in0.0 mm 0.00 in0.0 mm
06:25 AM 31.0°F-0.6°C 28.4°F-2.0°C 90% 2.0 mph SW3.2 kmh SW 4.0 mph6.4 kmh 29.73 in1006.8 mb 0.00 in0.0 mm 0.00 in0.0 mm 0.00 in0.0 mm
06:30 AM 30.9°F-0.6°C 28.4°F-2.0°C 90% 2.0 mph WSW3.2 kmh WSW -- 29.74 in1007.1 mb 0.00 in0.0 mm 0.00 in0.0 mm 0.00 in0.0 mm
06:35 AM 31.0°F-0.6°C 28.4°F-2.0°C 90% 4.0 mph WSW6.4 kmh WSW -- 29.74 in1007.1 mb 0.00 in0.0 mm 0.00 in0.0 mm 0.00 in0.0 mm
06:40 AM 31.1°F-0.5°C 28.6°F-1.9°C 90% 4.0 mph WSW6.4 kmh WSW -- 29.73 in1006.8 mb 0.00 in0.0 mm 0.00 in0.0 mm 0.00 in0.0 mm
06:45 AM 30.8°F-0.7°C 28.2°F-2.1°C 90% 3.0 mph WSW4.8 kmh WSW -- 29.73 in1006.8 mb 0.00 in0.0 mm 0.00 in0.0 mm 0.00 in0.0 mm
06:50 AM 30.6°F-0.8°C 28.0°F-2.2°C 90% 2.0 mph WSW3.2 kmh WSW 4.0 mph6.4 kmh 29.73 in1006.8 mb 0.00 in0.0 mm 0.00 in0.0 mm 0.00 in0.0 mm
06:55 AM 30.3°F-0.9°C 27.9°F-2.3°C 90% 2.0 mph WSW3.2 kmh WSW -- 29.73 in1006.8 mb 0.00 in0.0 mm 0.00 in0.0 mm 0.00 in0.0 mm
07:00 AM 30.2°F-1.0°C 27.7°F-2.4°C 90% 2.0 mph WSW3.2 kmh WSW -- 29.73 in1006.8 mb 0.00 in0.0 mm 0.00 in0.0 mm 0.00 in0.0 mm
07:05 AM 30.0°F-1.1°C 27.5°F-2.5°C 90% 3.0 mph SW4.8 kmh SW -- 29.73 in1006.8 mb 0.00 in0.0 mm 0.00 in0.0 mm 0.00 in0.0 mm
07:10 AM 29.8°F-1.2°C 27.3°F-2.6°C 90% 3.0 mph WSW4.8 kmh WSW -- 29.73 in1006.8 mb 0.00 in0.0 mm 0.00 in0.0 mm 0.00 in0.0 mm
07:15 AM 29.7°F-1.3°C 27.1°F-2.7°C 90% 4.0 mph WSW6.4 kmh WSW 5.0 mph8.0 kmh 29.73 in1006.8 mb 0.00 in0.0 mm 0.00 in0.0 mm 0.00 in0.0 mm
07:20 AM 29.9°F-1.2°C 27.5°F-2.5°C 91% 2.0 mph WSW3.2 kmh WSW -- 29.73 in1006.8 mb 0.00 in0.0 mm 0.00 in0.0 mm 0.00 in0.0 mm
07:25 AM 30.0°F-1.1°C 27.7°F-2.4°C 91% 2.0 mph WSW3.2 kmh WSW -- 29.73 in1006.8 mb 0.00 in0.0 mm 0.00 in0.0 mm 0.00 in0.0 mm
07:30 AM 30.0°F-1.1°C 27.5°F-2.5°C 90% 3.0 mph WSW4.8 kmh WSW -- 29.73 in1006.8 mb 0.00 in0.0 mm 0.00 in0.0 mm 0.00 in0.0 mm
07:35 AM 30.0°F-1.1°C 27.5°F-2.5°C 90% 3.0 mph WSW4.8 kmh WSW -- 29.73 in1006.8 mb 0.00 in0.0 mm 0.00 in0.0 mm 0.00 in0.0 mm
07:40 AM 30.0°F-1.1°C 27.5°F-2.5°C 90% 5.0 mph WSW8.0 kmh WSW 5.0 mph8.0 kmh 29.73 in1006.8 mb 0.00 in0.0 mm 0.00 in0.0 mm 0.00 in0.0 mm
07:45 AM 29.9°F-1.2°C 27.3°F-2.6°C 90% 4.0 mph WSW6.4 kmh WSW -- 29.73 in1006.8 mb 0.00 in0.0 mm 0.00 in0.0 mm 0.00 in0.0 mm
07:50 AM 29.9°F-1.2°C 27.3°F-2.6°C 90% 4.0 mph WSW6.4 kmh WSW -- 29.73 in1006.8 mb 0.00 in0.0 mm 0.00 in0.0 mm 0.00 in0.0 mm
07:55 AM 29.7°F-1.3°C 27.1°F-2.7°C 90% 4.0 mph WSW6.4 kmh WSW -- 29.73 in1006.8 mb 0.00 in0.0 mm 0.00 in0.0 mm 0.00 in0.0 mm
08:00 AM 29.6°F-1.3°C 27.1°F-2.7°C 90% 4.0 mph WSW6.4 kmh WSW -- 29.73 in1006.8 mb 0.00 in0.0 mm 0.00 in0.0 mm 0.00 in0.0 mm
08:05 AM 29.5°F-1.4°C 27.0°F-2.8°C 90% 4.0 mph W6.4 kmh W 5.0 mph8.0 kmh 29.73 in1006.8 mb 0.00 in0.0 mm 0.00 in0.0 mm 0.00 in0.0 mm
08:10 AM 29.6°F-1.3°C 27.1°F-2.7°C 90% 5.0 mph W8.0 kmh W -- 29.73 in1006.8 mb 0.00 in0.0 mm 0.00 in0.0 mm 0.00 in0.0 mm
08:15 AM 29.8°F-1.2°C 27.3°F-2.6°C 90% 4.0 mph WSW6.4 kmh WSW -- 29.73 in1006.8 mb 0.00 in0.0 mm 0.00 in0.0 mm 0.00 in0.0 mm
08:20 AM 29.5°F-1.4°C 27.0°F-2.8°C 90% 3.0 mph W4.8 kmh W -- 29.72 in1006.4 mb 0.00 in0.0 mm 0.00 in0.0 mm 0.00 in0.0 mm
08:25 AM 29.3°F-1.5°C 26.8°F-2.9°C 90% 2.0 mph W3.2 kmh W -- 29.72 in1006.4 mb 0.00 in0.0 mm 0.00 in0.0 mm 0.00 in0.0 mm
08:30 AM 29.0°F-1.7°C 26.4°F-3.1°C 90% 4.0 mph WSW6.4 kmh WSW 5.0 mph8.0 kmh 29.72 in1006.4 mb 0.00 in0.0 mm 0.00 in0.0 mm 0.00 in0.0 mm
08:35 AM 28.6°F-1.9°C 26.1°F-3.3°C 90% 3.0 mph WSW4.8 kmh WSW -- 29.72 in1006.4 mb 0.00 in0.0 mm 0.00 in0.0 mm 0.00 in0.0 mm
08:40 AM 28.8°F-1.8°C 26.4°F-3.1°C 91% 4.0 mph W6.4 kmh W -- 29.73 in1006.8 mb 0.00 in0.0 mm 0.00 in0.0 mm 0.00 in0.0 mm
08:45 AM 28.9°F-1.7°C 26.6°F-3.0°C 91% 3.0 mph WSW4.8 kmh WSW -- 29.72 in1006.4 mb 0.00 in0.0 mm 0.00 in0.0 mm 0.00 in0.0 mm
08:50 AM 29.5°F-1.4°C 27.5°F-2.5°C 92% 2.0 mph WSW3.2 kmh WSW -- 29.72 in1006.4 mb 0.00 in0.0 mm 0.00 in0.0 mm 0.00 in0.0 mm
08:55 AM 29.8°F-1.2°C 27.9°F-2.3°C 92% 1.0 mph WSW1.6 kmh WSW 4.0 mph6.4 kmh 29.72 in1006.4 mb 0.00 in0.0 mm 0.00 in0.0 mm 0.00 in0.0 mm
09:00 AM 30.2°F-1.0°C 28.2°F-2.1°C 92% Calm Calm -- 29.72 in1006.4 mb 0.00 in0.0 mm 0.00 in0.0 mm 0.00 in0.0 mm
09:05 AM 30.4°F-0.9°C 28.4°F-2.0°C 92% 1.0 mph WSW1.6 kmh WSW -- 29.72 in1006.4 mb 0.00 in0.0 mm 0.00 in0.0 mm 0.00 in0.0 mm
09:10 AM 29.9°F-1.2°C 27.5°F-2.5°C 91% 3.0 mph WSW4.8 kmh WSW -- 29.71 in1006.1 mb 0.00 in0.0 mm 0.00 in0.0 mm 0.00 in0.0 mm
09:15 AM 30.2°F-1.0°C 28.2°F-2.1°C 92% 2.0 mph WSW3.2 kmh WSW -- 29.71 in1006.1 mb 0.00 in0.0 mm 0.00 in0.0 mm 0.00 in0.0 mm
09:20 AM 30.4°F-0.9°C 28.4°F-2.0°C 92% 2.0 mph WSW3.2 kmh WSW 3.0 mph4.8 kmh 29.71 in1006.1 mb 0.00 in0.0 mm 0.00 in0.0 mm 0.00 in0.0 mm
09:25 AM 30.3°F-0.9°C 28.4°F-2.0°C 92% 2.0 mph SW3.2 kmh SW -- 29.71 in1006.1 mb 0.00 in0.0 mm 0.00 in0.0 mm 0.00 in0.0 mm
09:30 AM 30.2°F-1.0°C 28.2°F-2.1°C 92% 3.0 mph SW4.8 kmh SW -- 29.72 in1006.4 mb 0.00 in0.0 mm 0.00 in0.0 mm 0.00 in0.0 mm
09:35 AM 30.1°F-1.1°C 28.0°F-2.2°C 92% 2.0 mph SW3.2 kmh SW -- 29.71 in1006.1 mb 0.00 in0.0 mm 0.00 in0.0 mm 0.00 in0.0 mm
09:40 AM 30.1°F-1.1°C 28.0°F-2.2°C 92% 2.0 mph SW3.2 kmh SW -- 29.71 in1006.1 mb 0.00 in0.0 mm 0.00 in0.0 mm 0.00 in0.0 mm
09:45 AM 30.4°F-0.9°C 28.4°F-2.0°C 92% 2.0 mph SW3.2 kmh SW 4.0 mph6.4 kmh 29.71 in1006.1 mb 0.00 in0.0 mm 0.00 in0.0 mm 0.00 in0.0 mm
09:50 AM 30.7°F-0.7°C 28.8°F-1.8°C 92% 1.0 mph WSW1.6 kmh WSW -- 29.71 in1006.1 mb 0.00 in0.0 mm 0.00 in0.0 mm 0.00 in0.0 mm
09:55 AM 30.7°F-0.7°C 28.4°F-2.0°C 91% 2.0 mph WSW3.2 kmh WSW -- 29.72 in1006.4 mb 0.00 in0.0 mm 0.00 in0.0 mm 0.00 in0.0 mm
10:00 AM 30.7°F-0.7°C 28.4°F-2.0°C 91% 2.0 mph WSW3.2 kmh WSW -- 29.71 in1006.1 mb 0.00 in0.0 mm 0.00 in0.0 mm 0.00 in0.0 mm
10:05 AM 30.7°F-0.7°C 28.4°F-2.0°C 91% 3.0 mph WSW4.8 kmh WSW -- 29.71 in1006.1 mb 0.00 in0.0 mm 0.00 in0.0 mm 0.00 in0.0 mm
10:10 AM 31.0°F-0.6°C 28.6°F-1.9°C 91% 2.0 mph WSW3.2 kmh WSW 4.0 mph6.4 kmh 29.71 in1006.1 mb 0.00 in0.0 mm 0.00 in0.0 mm 0.00 in0.0 mm
10:15 AM 31.4°F-0.3°C 29.1°F-1.6°C 91% 2.0 mph WSW3.2 kmh WSW -- 29.71 in1006.1 mb 0.00 in0.0 mm 0.00 in0.0 mm 0.00 in0.0 mm
10:20 AM 31.7°F-0.2°C 29.3°F-1.5°C 91% 2.0 mph WSW3.2 kmh WSW -- 29.72 in1006.4 mb 0.00 in0.0 mm 0.00 in0.0 mm 0.00 in0.0 mm
10:25 AM 31.8°F-0.1°C 29.5°F-1.4°C 91% 1.0 mph WSW1.6 kmh WSW -- 29.71 in1006.1 mb 0.00 in0.0 mm 0.00 in0.0 mm 0.00 in0.0 mm
10:30 AM 32.0°F0.0°C 29.7°F-1.3°C 91% 1.0 mph WSW1.6 kmh WSW -- 29.72 in1006.4 mb 0.00 in0.0 mm 0.00 in0.0 mm 0.00 in0.0 mm
10:35 AM 32.1°F0.1°C 29.8°F-1.2°C 91% Calm Calm 5.0 mph8.0 kmh 29.72 in1006.4 mb 0.00 in0.0 mm 0.00 in0.0 mm 0.00 in0.0 mm
10:40 AM 32.1°F0.1°C 30.2°F-1.0°C 92% 2.0 mph SW3.2 kmh SW -- 29.71 in1006.1 mb 0.00 in0.0 mm 0.00 in0.0 mm 0.00 in0.0 mm
10:45 AM 32.1°F0.1°C 30.2°F-1.0°C 92% 5.0 mph SW8.0 kmh SW -- 29.71 in1006.1 mb 0.00 in0.0 mm 0.00 in0.0 mm 0.00 in0.0 mm
10:50 AM 32.1°F0.1°C 30.2°F-1.0°C 92% 2.0 mph SW3.2 kmh SW -- 29.71 in1006.1 mb 0.00 in0.0 mm 0.00 in0.0 mm 0.00 in0.0 mm
10:55 AM 32.2°F0.1°C 30.2°F-1.0°C 92% 1.0 mph SW1.6 kmh SW -- 29.71 in1006.1 mb 0.00 in0.0 mm 0.00 in0.0 mm 0.00 in0.0 mm
11:00 AM 32.2°F0.1°C 29.8°F-1.2°C 91% 2.0 mph SW3.2 kmh SW 6.0 mph9.7 kmh 29.71 in1006.1 mb 0.00 in0.0 mm 0.00 in0.0 mm 0.00 in0.0 mm
11:05 AM 32.4°F0.2°C 30.0°F-1.1°C 91% 4.0 mph SW6.4 kmh SW -- 29.71 in1006.1 mb 0.00 in0.0 mm 0.00 in0.0 mm 0.00 in0.0 mm
11:10 AM 32.5°F0.3°C 30.2°F-1.0°C 91% Calm Calm -- 29.71 in1006.1 mb 0.00 in0.0 mm 0.00 in0.0 mm 0.00 in0.0 mm
11:15 AM 32.6°F0.3°C 30.2°F-1.0°C 91% 1.0 mph WSW1.6 kmh WSW -- 29.70 in1005.8 mb 0.00 in0.0 mm 0.00 in0.0 mm 0.00 in0.0 mm
11:20 AM 32.6°F0.3°C 30.0°F-1.1°C 90% 2.0 mph SW3.2 kmh SW -- 29.71 in1006.1 mb 0.00 in0.0 mm 0.00 in0.0 mm 0.00 in0.0 mm
11:25 AM 32.6°F0.3°C 30.0°F-1.1°C 90% 3.0 mph SW4.8 kmh SW 6.0 mph9.7 kmh 29.70 in1005.8 mb 0.00 in0.0 mm 0.00 in0.0 mm 0.00 in0.0 mm
11:30 AM 32.6°F0.3°C 30.0°F-1.1°C 90% Calm Calm -- 29.70 in1005.8 mb 0.00 in0.0 mm 0.00 in0.0 mm 0.00 in0.0 mm
11:35 AM 32.3°F0.2°C 29.8°F-1.2°C 90% 1.0 mph SW1.6 kmh SW -- 29.70 in1005.8 mb 0.00 in0.0 mm 0.00 in0.0 mm 0.00 in0.0 mm
11:40 AM 32.1°F0.1°C 29.7°F-1.3°C 90% 2.0 mph SW3.2 kmh SW -- 29.70 in1005.8 mb 0.00 in0.0 mm 0.00 in0.0 mm 0.00 in0.0 mm
11:45 AM 31.9°F-0.1°C 29.3°F-1.5°C 90% 2.0 mph WSW3.2 kmh WSW -- 29.70 in1005.8 mb 0.00 in0.0 mm 0.00 in0.0 mm 0.00 in0.0 mm
11:50 AM 31.9°F-0.1°C 29.3°F-1.5°C 90% 4.0 mph SW6.4 kmh SW 6.0 mph9.7 kmh 29.70 in1005.8 mb 0.00 in0.0 mm 0.00 in0.0 mm 0.00 in0.0 mm
11:55 AM 32.1°F0.1°C 29.7°F-1.3°C 90% 2.0 mph SW3.2 kmh SW -- 29.70 in1005.8 mb 0.00 in0.0 mm 0.00 in0.0 mm 0.00 in0.0 mm
12:00 PM 32.2°F0.1°C 29.3°F-1.5°C 89% Calm Calm -- 29.70 in1005.8 mb 0.00 in0.0 mm 0.00 in0.0 mm 0.00 in0.0 mm
12:05 PM 32.2°F0.1°C 29.3°F-1.5°C 89% 2.0 mph SW3.2 kmh SW -- 29.70 in1005.8 mb 0.00 in0.0 mm 0.00 in0.0 mm 0.00 in0.0 mm
12:10 PM 32.3°F0.2°C 29.5°F-1.4°C 89% 1.0 mph SW1.6 kmh SW -- 29.70 in1005.8 mb 0.00 in0.0 mm 0.00 in0.0 mm 0.00 in0.0 mm
12:15 PM 32.3°F0.2°C 29.5°F-1.4°C 89% 1.0 mph SW1.6 kmh SW 4.0 mph6.4 kmh 29.69 in1005.4 mb 0.00 in0.0 mm 0.00 in0.0 mm 0.00 in0.0 mm
12:20 PM 32.4°F0.2°C 29.5°F-1.4°C 89% 2.0 mph SW3.2 kmh SW -- 29.70 in1005.8 mb 0.00 in0.0 mm 0.00 in0.0 mm 0.00 in0.0 mm
12:25 PM 32.6°F0.3°C 30.0°F-1.1°C 90% 1.0 mph SW1.6 kmh SW -- 29.70 in1005.8 mb 0.00 in0.0 mm 0.00 in0.0 mm 0.00 in0.0 mm
12:30 PM 32.8°F0.4°C 30.2°F-1.0°C 90% 1.0 mph W1.6 kmh W -- 29.70 in1005.8 mb 0.00 in0.0 mm 0.00 in0.0 mm 0.00 in0.0 mm
12:35 PM 32.8°F0.4°C 30.2°F-1.0°C 90% Calm Calm -- 29.70 in1005.8 mb 0.00 in0.0 mm 0.00 in0.0 mm 0.00 in0.0 mm
12:40 PM 32.7°F0.4°C 30.2°F-1.0°C 90% Calm Calm 3.0 mph4.8 kmh 29.69 in1005.4 mb 0.00 in0.0 mm 0.00 in0.0 mm 0.00 in0.0 mm
12:45 PM 32.6°F0.3°C 30.0°F-1.1°C 90% Calm Calm -- 29.69 in1005.4 mb 0.00 in0.0 mm 0.00 in0.0 mm 0.00 in0.0 mm
12:50 PM 32.5°F0.3°C 30.0°F-1.1°C 90% Calm Calm -- 29.69 in1005.4 mb 0.00 in0.0 mm 0.00 in0.0 mm 0.00 in0.0 mm
12:55 PM 32.3°F0.2°C 30.0°F-1.1°C 91% Calm Calm -- 29.69 in1005.4 mb 0.00 in0.0 mm 0.00 in0.0 mm 0.00 in0.0 mm
01:00 PM 32.2°F0.1°C 29.8°F-1.2°C 91% Calm Calm -- 29.69 in1005.4 mb 0.00 in0.0 mm 0.00 in0.0 mm 0.00 in0.0 mm
01:05 PM 32.2°F0.1°C 30.2°F-1.0°C 92% Calm Calm 1.0 mph1.6 kmh 29.69 in1005.4 mb 0.00 in0.0 mm 0.00 in0.0 mm 0.00 in0.0 mm
01:10 PM 32.1°F0.1°C 30.2°F-1.0°C 92% 1.0 mph WSW1.6 kmh WSW -- 29.69 in1005.4 mb 0.00 in0.0 mm 0.00 in0.0 mm 0.00 in0.0 mm
01:15 PM 32.0°F0.0°C 30.0°F-1.1°C 92% Calm Calm -- 29.69 in1005.4 mb 0.00 in0.0 mm 0.00 in0.0 mm 0.00 in0.0 mm
01:20 PM 31.9°F-0.1°C 29.8°F-1.2°C 92% 1.0 mph WSW1.6 kmh WSW -- 29.69 in1005.4 mb 0.00 in0.0 mm 0.00 in0.0 mm 0.00 in0.0 mm
01:25 PM 32.0°F0.0°C 30.2°F-1.0°C 93% 1.0 mph WSW1.6 kmh WSW -- 29.69 in1005.4 mb 0.00 in0.0 mm 0.00 in0.0 mm 0.00 in0.0 mm
01:30 PM 32.0°F0.0°C 30.2°F-1.0°C 93% 1.0 mph SW1.6 kmh SW 3.0 mph4.8 kmh 29.68 in1005.1 mb 0.00 in0.0 mm 0.00 in0.0 mm 0.00 in0.0 mm
01:35 PM 32.1°F0.1°C 30.4°F-0.9°C 93% Calm Calm -- 29.68 in1005.1 mb 0.00 in0.0 mm 0.00 in0.0 mm 0.00 in0.0 mm
01:40 PM 32.1°F0.1°C 30.2°F-1.0°C 92% Calm Calm -- 29.69 in1005.4 mb 0.00 in0.0 mm 0.00 in0.0 mm 0.00 in0.0 mm
01:45 PM 32.2°F0.1°C 30.2°F-1.0°C 92% Calm Calm -- 29.69 in1005.4 mb 0.00 in0.0 mm 0.00 in0.0 mm 0.00 in0.0 mm
01:50 PM 32.3°F0.2°C 30.4°F-0.9°C 92% Calm Calm -- 29.68 in1005.1 mb 0.00 in0.0 mm 0.00 in0.0 mm 0.00 in0.0 mm
01:55 PM 32.3°F0.2°C 30.4°F-0.9°C 92% Calm Calm 1.0 mph1.6 kmh 29.68 in1005.1 mb 0.00 in0.0 mm 0.00 in0.0 mm 0.00 in0.0 mm
02:00 PM 32.2°F0.1°C 30.2°F-1.0°C 92% 1.0 mph SW1.6 kmh SW -- 29.68 in1005.1 mb 0.00 in0.0 mm 0.00 in0.0 mm 0.00 in0.0 mm
02:05 PM 32.2°F0.1°C 30.2°F-1.0°C 92% 1.0 mph SW1.6 kmh SW -- 29.68 in1005.1 mb 0.00 in0.0 mm 0.00 in0.0 mm 0.00 in0.0 mm
02:10 PM 32.4°F0.2°C 30.0°F-1.1°C 91% 1.0 mph SW1.6 kmh SW -- 29.68 in1005.1 mb 0.00 in0.0 mm 0.00 in0.0 mm 0.00 in0.0 mm
02:15 PM 32.3°F0.2°C 30.0°F-1.1°C 91% 1.0 mph SW1.6 kmh SW -- 29.68 in1005.1 mb 0.00 in0.0 mm 0.00 in0.0 mm 0.00 in0.0 mm
02:20 PM 32.2°F0.1°C 29.8°F-1.2°C 91% 2.0 mph SW3.2 kmh SW 2.0 mph3.2 kmh 29.68 in1005.1 mb 0.00 in0.0 mm 0.00 in0.0 mm 0.00 in0.0 mm
02:25 PM 32.2°F0.1°C 29.8°F-1.2°C 91% 2.0 mph SW3.2 kmh SW -- 29.68 in1005.1 mb 0.00 in0.0 mm 0.00 in0.0 mm 0.00 in0.0 mm
02:30 PM 32.1°F0.1°C 29.8°F-1.2°C 91% 2.0 mph SW3.2 kmh SW -- 29.68 in1005.1 mb 0.00 in0.0 mm 0.00 in0.0 mm 0.00 in0.0 mm
02:35 PM 31.9°F-0.1°C 29.5°F-1.4°C 91% 1.0 mph WSW1.6 kmh WSW -- 29.68 in1005.1 mb 0.00 in0.0 mm 0.00 in0.0 mm 0.00 in0.0 mm
02:40 PM 31.8°F-0.1°C 29.5°F-1.4°C 91% 2.0 mph SW3.2 kmh SW -- 29.68 in1005.1 mb 0.00 in0.0 mm 0.00 in0.0 mm 0.00 in0.0 mm
02:45 PM 31.8°F-0.1°C 29.3°F-1.5°C 90% 3.0 mph SW4.8 kmh SW 5.0 mph8.0 kmh 29.67 in1004.7 mb 0.00 in0.0 mm 0.00 in0.0 mm 0.00 in0.0 mm
02:50 PM 31.8°F-0.1°C 29.3°F-1.5°C 90% 3.0 mph SW4.8 kmh SW -- 29.67 in1004.7 mb 0.00 in0.0 mm 0.00 in0.0 mm 0.00 in0.0 mm
02:55 PM 31.8°F-0.1°C 29.3°F-1.5°C 90% 3.0 mph SSW4.8 kmh SSW -- 29.67 in1004.7 mb 0.00 in0.0 mm 0.00 in0.0 mm 0.00 in0.0 mm
03:00 PM 31.7°F-0.2°C 28.8°F-1.8°C 89% 2.0 mph WSW3.2 kmh WSW -- 29.67 in1004.7 mb 0.00 in0.0 mm 0.00 in0.0 mm 0.00 in0.0 mm
03:05 PM 31.5°F-0.3°C 28.9°F-1.7°C 90% 1.0 mph SW1.6 kmh SW -- 29.67 in1004.7 mb 0.00 in0.0 mm 0.00 in0.0 mm 0.00 in0.0 mm
03:10 PM 31.5°F-0.3°C 28.9°F-1.7°C 90% 2.0 mph SW3.2 kmh SW 2.0 mph3.2 kmh 29.67 in1004.7 mb 0.00 in0.0 mm 0.00 in0.0 mm 0.00 in0.0 mm
03:15 PM 31.6°F-0.2°C 29.1°F-1.6°C 90% 2.0 mph WSW3.2 kmh WSW -- 29.67 in1004.7 mb 0.00 in0.0 mm 0.00 in0.0 mm 0.00 in0.0 mm
03:20 PM 31.8°F-0.1°C 28.9°F-1.7°C 89% 4.0 mph SW6.4 kmh SW -- 29.67 in1004.7 mb 0.00 in0.0 mm 0.00 in0.0 mm 0.00 in0.0 mm
03:25 PM 31.8°F-0.1°C 28.9°F-1.7°C 89% 1.0 mph WSW1.6 kmh WSW -- 29.67 in1004.7 mb 0.00 in0.0 mm 0.00 in0.0 mm 0.00 in0.0 mm
03:30 PM 31.8°F-0.1°C 29.3°F-1.5°C 90% 2.0 mph W3.2 kmh W -- 29.67 in1004.7 mb 0.00 in0.0 mm 0.00 in0.0 mm 0.00 in0.0 mm
03:35 PM 31.8°F-0.1°C 29.3°F-1.5°C 90% Calm Calm 4.0 mph6.4 kmh 29.67 in1004.7 mb 0.00 in0.0 mm 0.00 in0.0 mm 0.00 in0.0 mm
03:40 PM 31.7°F-0.2°C 29.1°F-1.6°C 90% 1.0 mph SW1.6 kmh SW -- 29.67 in1004.7 mb 0.00 in0.0 mm 0.00 in0.0 mm 0.00 in0.0 mm
03:45 PM 31.6°F-0.2°C 29.1°F-1.6°C 90% Calm Calm -- 29.67 in1004.7 mb 0.00 in0.0 mm 0.00 in0.0 mm 0.00 in0.0 mm
03:50 PM 31.5°F-0.3°C 28.9°F-1.7°C 90% 2.0 mph SW3.2 kmh SW -- 29.67 in1004.7 mb 0.00 in0.0 mm 0.00 in0.0 mm 0.00 in0.0 mm
03:55 PM 31.5°F-0.3°C 29.1°F-1.6°C 91% 1.0 mph SW1.6 kmh SW -- 29.67 in1004.7 mb 0.00 in0.0 mm 0.00 in0.0 mm 0.00 in0.0 mm
04:00 PM 31.5°F-0.3°C 29.1°F-1.6°C 91% 2.0 mph SW3.2 kmh SW 3.0 mph4.8 kmh 29.67 in1004.7 mb 0.00 in0.0 mm 0.00 in0.0 mm 0.00 in0.0 mm
04:05 PM 31.5°F-0.3°C 29.1°F-1.6°C 91% 1.0 mph SW1.6 kmh SW -- 29.67 in1004.7 mb 0.00 in0.0 mm 0.00 in0.0 mm 0.00 in0.0 mm
04:10 PM 31.4°F-0.3°C 29.1°F-1.6°C 91% 2.0 mph SW3.2 kmh SW -- 29.67 in1004.7 mb 0.00 in0.0 mm 0.00 in0.0 mm 0.00 in0.0 mm
04:15 PM 31.4°F-0.3°C 29.5°F-1.4°C 92% 1.0 mph SW1.6 kmh SW -- 29.66 in1004.4 mb 0.00 in0.0 mm 0.00 in0.0 mm 0.00 in0.0 mm
04:20 PM 31.4°F-0.3°C 29.5°F-1.4°C 92% 2.0 mph SW3.2 kmh SW -- 29.66 in1004.4 mb 0.00 in0.0 mm 0.00 in0.0 mm 0.00 in0.0 mm
04:25 PM 31.4°F-0.3°C 29.5°F-1.4°C 92% 2.0 mph SW3.2 kmh SW 4.0 mph6.4 kmh 29.67 in1004.7 mb 0.00 in0.0 mm 0.00 in0.0 mm 0.00 in0.0 mm
04:30 PM 31.4°F-0.3°C 29.5°F-1.4°C 92% 2.0 mph SW3.2 kmh SW -- 29.66 in1004.4 mb 0.00 in0.0 mm 0.00 in0.0 mm 0.00 in0.0 mm
04:35 PM 31.4°F-0.3°C 29.1°F-1.6°C 91% 1.0 mph SW1.6 kmh SW -- 29.66 in1004.4 mb 0.00 in0.0 mm 0.00 in0.0 mm 0.00 in0.0 mm
04:40 PM 31.4°F-0.3°C 29.1°F-1.6°C 91% 1.0 mph SW1.6 kmh SW -- 29.66 in1004.4 mb 0.00 in0.0 mm 0.00 in0.0 mm 0.00 in0.0 mm
04:45 PM 31.3°F-0.4°C 28.9°F-1.7°C 91% 2.0 mph SW3.2 kmh SW -- 29.66 in1004.4 mb 0.00 in0.0 mm 0.00 in0.0 mm 0.00 in0.0 mm
04:50 PM 31.4°F-0.3°C 28.9°F-1.7°C 90% Calm Calm 5.0 mph8.0 kmh 29.66 in1004.4 mb 0.00 in0.0 mm 0.00 in0.0 mm 0.00 in0.0 mm
04:55 PM 31.4°F-0.3°C 28.9°F-1.7°C 90% 3.0 mph SW4.8 kmh SW -- 29.66 in1004.4 mb 0.00 in0.0 mm 0.00 in0.0 mm 0.00 in0.0 mm
05:00 PM 31.4°F-0.3°C 28.9°F-1.7°C 90% 5.0 mph SW8.0 kmh SW -- 29.66 in1004.4 mb 0.00 in0.0 mm 0.00 in0.0 mm 0.00 in0.0 mm
05:05 PM 31.4°F-0.3°C 28.9°F-1.7°C 90% 2.0 mph SW3.2 kmh SW -- 29.65 in1004.1 mb 0.00 in0.0 mm 0.00 in0.0 mm 0.00 in0.0 mm
05:10 PM 31.2°F-0.4°C 28.4°F-2.0°C 89% 2.0 mph WSW3.2 kmh WSW -- 29.65 in1004.1 mb 0.00 in0.0 mm 0.00 in0.0 mm 0.00 in0.0 mm
05:15 PM 31.1°F-0.5°C 28.2°F-2.1°C 89% 2.0 mph WSW3.2 kmh WSW 4.0 mph6.4 kmh 29.65 in1004.1 mb 0.00 in0.0 mm 0.00 in0.0 mm 0.00 in0.0 mm
05:20 PM 31.1°F-0.5°C 28.2°F-2.1°C 89% 2.0 mph WSW3.2 kmh WSW -- 29.65 in1004.1 mb 0.00 in0.0 mm 0.00 in0.0 mm 0.00 in0.0 mm
05:25 PM 31.0°F-0.6°C 28.0°F-2.2°C 89% 2.0 mph SW3.2 kmh SW -- 29.65 in1004.1 mb 0.00 in0.0 mm 0.00 in0.0 mm 0.00 in0.0 mm
05:30 PM 30.9°F-0.6°C 28.0°F-2.2°C 89% 2.0 mph WSW3.2 kmh WSW -- 29.65 in1004.1 mb 0.00 in0.0 mm 0.00 in0.0 mm 0.00 in0.0 mm
05:35 PM 30.6°F-0.8°C 27.7°F-2.4°C 89% 2.0 mph WSW3.2 kmh WSW -- 29.65 in1004.1 mb 0.00 in0.0 mm 0.00 in0.0 mm 0.00 in0.0 mm
05:40 PM 30.3°F-0.9°C 27.5°F-2.5°C 89% 5.0 mph W8.0 kmh W 5.0 mph8.0 kmh 29.65 in1004.1 mb 0.00 in0.0 mm 0.00 in0.0 mm 0.00 in0.0 mm
05:45 PM 30.1°F-1.1°C 27.1°F-2.7°C 89% 3.0 mph WSW4.8 kmh WSW -- 29.65 in1004.1 mb 0.00 in0.0 mm 0.00 in0.0 mm 0.00 in0.0 mm
05:50 PM 29.9°F-1.2°C 27.3°F-2.6°C 90% 4.0 mph WSW6.4 kmh WSW -- 29.65 in1004.1 mb 0.00 in0.0 mm 0.00 in0.0 mm 0.00 in0.0 mm
05:55 PM 29.8°F-1.2°C 27.3°F-2.6°C 90% 5.0 mph WSW8.0 kmh WSW -- 29.65 in1004.1 mb 0.00 in0.0 mm 0.00 in0.0 mm 0.00 in0.0 mm
06:00 PM 29.9°F-1.2°C 27.3°F-2.6°C 90% 2.0 mph WSW3.2 kmh WSW -- 29.64 in1003.7 mb 0.00 in0.0 mm 0.00 in0.0 mm 0.00 in0.0 mm
06:05 PM 29.7°F-1.3°C 27.1°F-2.7°C 90% 4.0 mph WSW6.4 kmh WSW 6.0 mph9.7 kmh 29.64 in1003.7 mb 0.00 in0.0 mm 0.00 in0.0 mm 0.00 in0.0 mm
06:10 PM 29.8°F-1.2°C 27.3°F-2.6°C 90% 3.0 mph WSW4.8 kmh WSW -- 29.64 in1003.7 mb 0.00 in0.0 mm 0.00 in0.0 mm 0.00 in0.0 mm
06:15 PM 29.8°F-1.2°C 27.3°F-2.6°C 90% 4.0 mph W6.4 kmh W -- 29.64 in1003.7 mb 0.00 in0.0 mm 0.00 in0.0 mm 0.00 in0.0 mm
06:20 PM 29.6°F-1.3°C 27.1°F-2.7°C 90% 4.0 mph W6.4 kmh W -- 29.64 in1003.7 mb 0.00 in0.0 mm 0.00 in0.0 mm 0.00 in0.0 mm
06:25 PM 29.6°F-1.3°C 27.1°F-2.7°C 90% 3.0 mph WSW4.8 kmh WSW -- 29.64 in1003.7 mb 0.00 in0.0 mm 0.00 in0.0 mm 0.00 in0.0 mm
06:30 PM 29.5°F-1.4°C 27.0°F-2.8°C 90% 2.0 mph WSW3.2 kmh WSW 7.0 mph11.3 kmh 29.64 in1003.7 mb 0.00 in0.0 mm 0.00 in0.0 mm 0.00 in0.0 mm
06:35 PM 29.6°F-1.3°C 27.1°F-2.7°C 90% 4.0 mph WSW6.4 kmh WSW -- 29.64 in1003.7 mb 0.00 in0.0 mm 0.00 in0.0 mm 0.00 in0.0 mm
06:40 PM 29.6°F-1.3°C 27.1°F-2.7°C 90% 2.0 mph WSW3.2 kmh WSW -- 29.64 in1003.7 mb 0.00 in0.0 mm 0.00 in0.0 mm 0.00 in0.0 mm
06:45 PM 29.8°F-1.2°C 27.0°F-2.8°C 89% 3.0 mph WSW4.8 kmh WSW -- 29.64 in1003.7 mb 0.00 in0.0 mm 0.00 in0.0 mm 0.00 in0.0 mm
06:50 PM 29.9°F-1.2°C 27.0°F-2.8°C 89% 5.0 mph W8.0 kmh W -- 29.63 in1003.4 mb 0.00 in0.0 mm 0.00 in0.0 mm 0.00 in0.0 mm
06:55 PM 30.1°F-1.1°C 27.1°F-2.7°C 89% 3.0 mph WSW4.8 kmh WSW 5.0 mph8.0 kmh 29.63 in1003.4 mb 0.00 in0.0 mm 0.00 in0.0 mm 0.00 in0.0 mm
07:00 PM 30.1°F-1.1°C 27.1°F-2.7°C 89% 3.0 mph WSW4.8 kmh WSW -- 29.63 in1003.4 mb 0.00 in0.0 mm 0.00 in0.0 mm 0.00 in0.0 mm
07:05 PM 30.1°F-1.1°C 27.1°F-2.7°C 89% 2.0 mph WSW3.2 kmh WSW -- 29.63 in1003.4 mb 0.00 in0.0 mm 0.00 in0.0 mm 0.00 in0.0 mm
07:10 PM 30.2°F-1.0°C 27.1°F-2.7°C 88% 3.0 mph WSW4.8 kmh WSW -- 29.63 in1003.4 mb 0.00 in0.0 mm 0.00 in0.0 mm 0.00 in0.0 mm
07:15 PM 30.1°F-1.1°C 27.1°F-2.7°C 89% 3.0 mph WSW4.8 kmh WSW -- 29.63 in1003.4 mb 0.00 in0.0 mm 0.00 in0.0 mm 0.00 in0.0 mm
07:20 PM 30.2°F-1.0°C 27.3°F-2.6°C 89% 3.0 mph WSW4.8 kmh WSW 5.0 mph8.0 kmh 29.63 in1003.4 mb 0.00 in0.0 mm 0.00 in0.0 mm 0.00 in0.0 mm
07:25 PM 30.5°F-0.8°C 27.5°F-2.5°C 88% 3.0 mph WSW4.8 kmh WSW -- 29.62 in1003.0 mb 0.00 in0.0 mm 0.00 in0.0 mm 0.00 in0.0 mm
07:30 PM 30.8°F-0.7°C 27.7°F-2.4°C 88% 3.0 mph WSW4.8 kmh WSW -- 29.62 in1003.0 mb 0.00 in0.0 mm 0.00 in0.0 mm 0.00 in0.0 mm
07:35 PM 30.6°F-0.8°C 27.1°F-2.7°C 87% 3.0 mph W4.8 kmh W -- 29.62 in1003.0 mb 0.00 in0.0 mm 0.00 in0.0 mm 0.00 in0.0 mm
07:40 PM 30.6°F-0.8°C 27.1°F-2.7°C 87% 3.0 mph WSW4.8 kmh WSW -- 29.62 in1003.0 mb 0.00 in0.0 mm 0.00 in0.0 mm 0.00 in0.0 mm
07:45 PM 30.7°F-0.7°C 27.3°F-2.6°C 87% 2.0 mph WSW3.2 kmh WSW 4.0 mph6.4 kmh 29.62 in1003.0 mb 0.00 in0.0 mm 0.00 in0.0 mm 0.00 in0.0 mm
07:50 PM 30.7°F-0.7°C 27.3°F-2.6°C 87% 4.0 mph WSW6.4 kmh WSW -- 29.61 in1002.7 mb 0.00 in0.0 mm 0.00 in0.0 mm 0.00 in0.0 mm
07:55 PM 30.8°F-0.7°C 27.3°F-2.6°C 87% 4.0 mph SW6.4 kmh SW -- 29.61 in1002.7 mb 0.00 in0.0 mm 0.00 in0.0 mm 0.00 in0.0 mm
08:00 PM 31.4°F-0.3°C 27.5°F-2.5°C 85% 3.0 mph WSW4.8 kmh WSW -- 29.61 in1002.7 mb 0.00 in0.0 mm 0.00 in0.0 mm 0.00 in0.0 mm
08:05 PM 31.4°F-0.3°C 27.1°F-2.7°C 84% 4.0 mph SW6.4 kmh SW -- 29.61 in1002.7 mb 0.00 in0.0 mm 0.00 in0.0 mm 0.00 in0.0 mm
08:10 PM 31.2°F-0.4°C 27.0°F-2.8°C 84% 2.0 mph WSW3.2 kmh WSW 7.0 mph11.3 kmh 29.61 in1002.7 mb 0.00 in0.0 mm 0.00 in0.0 mm 0.00 in0.0 mm
08:15 PM 31.0°F-0.6°C 26.6°F-3.0°C 84% 3.0 mph WSW4.8 kmh WSW -- 29.61 in1002.7 mb 0.00 in0.0 mm 0.00 in0.0 mm 0.00 in0.0 mm
08:20 PM 31.0°F-0.6°C 26.6°F-3.0°C 84% 2.0 mph WSW3.2 kmh WSW -- 29.61 in1002.7 mb 0.00 in0.0 mm 0.00 in0.0 mm 0.00 in0.0 mm
08:25 PM 30.9°F-0.6°C 26.6°F-3.0°C 84% 5.0 mph W8.0 kmh W -- 29.61 in1002.7 mb 0.00 in0.0 mm 0.00 in0.0 mm 0.00 in0.0 mm
08:30 PM 30.7°F-0.7°C 26.4°F-3.1°C 84% 7.0 mph WSW11.3 kmh WSW -- 29.61 in1002.7 mb 0.00 in0.0 mm 0.00 in0.0 mm 0.00 in0.0 mm
08:35 PM 30.8°F-0.7°C 26.4°F-3.1°C 84% 5.0 mph WSW8.0 kmh WSW 8.0 mph12.9 kmh 29.61 in1002.7 mb 0.00 in0.0 mm 0.00 in0.0 mm 0.00 in0.0 mm
08:40 PM 30.5°F-0.8°C 26.2°F-3.2°C 84% 6.0 mph WSW9.7 kmh WSW -- 29.60 in1002.4 mb 0.00 in0.0 mm 0.00 in0.0 mm 0.00 in0.0 mm
08:45 PM 30.4°F-0.9°C 26.1°F-3.3°C 84% 4.0 mph WSW6.4 kmh WSW -- 29.60 in1002.4 mb 0.00 in0.0 mm 0.00 in0.0 mm 0.00 in0.0 mm
08:50 PM 30.3°F-0.9°C 26.1°F-3.3°C 84% 3.0 mph WSW4.8 kmh WSW -- 29.60 in1002.4 mb 0.00 in0.0 mm 0.00 in0.0 mm 0.00 in0.0 mm
08:55 PM 30.1°F-1.1°C 26.1°F-3.3°C 85% 3.0 mph WSW4.8 kmh WSW -- 29.60 in1002.4 mb 0.00 in0.0 mm 0.00 in0.0 mm 0.00 in0.0 mm
09:00 PM 29.9°F-1.2°C 25.9°F-3.4°C 85% 6.0 mph W9.7 kmh W 7.0 mph11.3 kmh 29.60 in1002.4 mb 0.00 in0.0 mm 0.00 in0.0 mm 0.00 in0.0 mm
09:05 PM 29.7°F-1.3°C 25.7°F-3.5°C 85% 5.0 mph W8.0 kmh W -- 29.60 in1002.4 mb 0.00 in0.0 mm 0.00 in0.0 mm 0.00 in0.0 mm
09:10 PM 29.8°F-1.2°C 25.9°F-3.4°C 85% 4.0 mph W6.4 kmh W -- 29.60 in1002.4 mb 0.00 in0.0 mm 0.00 in0.0 mm 0.00 in0.0 mm
09:15 PM 29.9°F-1.2°C 25.9°F-3.4°C 85% 5.0 mph WSW8.0 kmh WSW -- 29.60 in1002.4 mb 0.00 in0.0 mm 0.00 in0.0 mm 0.00 in0.0 mm
09:20 PM 29.9°F-1.2°C 25.9°F-3.4°C 85% 5.0 mph WSW8.0 kmh WSW -- 29.60 in1002.4 mb 0.00 in0.0 mm 0.00 in0.0 mm 0.00 in0.0 mm
09:25 PM 29.8°F-1.2°C 25.9°F-3.4°C 85% 5.0 mph WSW8.0 kmh WSW 7.0 mph11.3 kmh 29.60 in1002.4 mb 0.00 in0.0 mm 0.00 in0.0 mm 0.00 in0.0 mm
09:30 PM 29.8°F-1.2°C 25.9°F-3.4°C 85% 6.0 mph WSW9.7 kmh WSW -- 29.60 in1002.4 mb 0.00 in0.0 mm 0.00 in0.0 mm 0.00 in0.0 mm
09:35 PM 29.9°F-1.2°C 25.9°F-3.4°C 85% 5.0 mph W8.0 kmh W -- 29.60 in1002.4 mb 0.00 in0.0 mm 0.00 in0.0 mm 0.00 in0.0 mm
09:40 PM 30.2°F-1.0°C 26.2°F-3.2°C 85% 4.0 mph WSW6.4 kmh WSW -- 29.60 in1002.4 mb 0.00 in0.0 mm 0.00 in0.0 mm 0.00 in0.0 mm
09:45 PM 30.4°F-0.9°C 26.1°F-3.3°C 84% 5.0 mph WSW8.0 kmh WSW -- 29.59 in1002.0 mb 0.00 in0.0 mm 0.00 in0.0 mm 0.00 in0.0 mm
09:50 PM 30.3°F-0.9°C 26.1°F-3.3°C 84% 3.0 mph W4.8 kmh W 6.0 mph9.7 kmh 29.59 in1002.0 mb 0.00 in0.0 mm 0.00 in0.0 mm 0.00 in0.0 mm
09:55 PM 30.1°F-1.1°C 25.7°F-3.5°C 84% 4.0 mph W6.4 kmh W -- 29.59 in1002.0 mb 0.00 in0.0 mm 0.00 in0.0 mm 0.00 in0.0 mm
10:00 PM 30.1°F-1.1°C 25.7°F-3.5°C 84% 3.0 mph WSW4.8 kmh WSW -- 29.59 in1002.0 mb 0.00 in0.0 mm 0.00 in0.0 mm 0.00 in0.0 mm
10:05 PM 30.0°F-1.1°C 25.7°F-3.5°C 84% 6.0 mph WSW9.7 kmh WSW -- 29.59 in1002.0 mb 0.00 in0.0 mm 0.00 in0.0 mm 0.00 in0.0 mm
10:10 PM 30.0°F-1.1°C 25.7°F-3.5°C 84% 6.0 mph W9.7 kmh W -- 29.59 in1002.0 mb 0.00 in0.0 mm 0.00 in0.0 mm 0.00 in0.0 mm
10:15 PM 29.9°F-1.2°C 25.5°F-3.6°C 84% 6.0 mph W9.7 kmh W 8.0 mph12.9 kmh 29.59 in1002.0 mb 0.00 in0.0 mm 0.00 in0.0 mm 0.00 in0.0 mm
10:20 PM 29.8°F-1.2°C 25.5°F-3.6°C 84% 7.0 mph WSW11.3 kmh WSW -- 29.59 in1002.0 mb 0.00 in0.0 mm 0.00 in0.0 mm 0.00 in0.0 mm
10:25 PM 29.6°F-1.3°C 25.3°F-3.7°C 84% 5.0 mph WSW8.0 kmh WSW -- 29.59 in1002.0 mb 0.00 in0.0 mm 0.00 in0.0 mm 0.00 in0.0 mm
10:30 PM 29.4°F-1.4°C 25.5°F-3.6°C 85% 5.0 mph WSW8.0 kmh WSW -- 29.59 in1002.0 mb 0.00 in0.0 mm 0.00 in0.0 mm 0.00 in0.0 mm
10:35 PM 29.3°F-1.5°C 25.3°F-3.7°C 85% 6.0 mph W9.7 kmh W -- 29.59 in1002.0 mb 0.00 in0.0 mm 0.00 in0.0 mm 0.00 in0.0 mm
10:40 PM 29.1°F-1.6°C 25.2°F-3.8°C 85% 4.0 mph WSW6.4 kmh WSW 7.0 mph11.3 kmh 29.58 in1001.7 mb 0.00 in0.0 mm 0.00 in0.0 mm 0.00 in0.0 mm
10:45 PM 28.8°F-1.8°C 24.8°F-4.0°C 85% 4.0 mph WSW6.4 kmh WSW -- 29.58 in1001.7 mb 0.00 in0.0 mm 0.00 in0.0 mm 0.00 in0.0 mm
10:50 PM 28.5°F-1.9°C 25.0°F-3.9°C 86% 6.0 mph W9.7 kmh W -- 29.58 in1001.7 mb 0.00 in0.0 mm 0.00 in0.0 mm 0.00 in0.0 mm
10:55 PM 28.4°F-2.0°C 24.8°F-4.0°C 86% 5.0 mph W8.0 kmh W -- 29.58 in1001.7 mb 0.00 in0.0 mm 0.00 in0.0 mm 0.00 in0.0 mm
11:00 PM 28.5°F-1.9°C 25.0°F-3.9°C 86% 4.0 mph W6.4 kmh W -- 29.57 in1001.4 mb 0.00 in0.0 mm 0.00 in0.0 mm 0.00 in0.0 mm
11:05 PM 28.2°F-2.1°C 24.3°F-4.3°C 85% 5.0 mph W8.0 kmh W 9.0 mph14.5 kmh 29.57 in1001.4 mb 0.00 in0.0 mm 0.00 in0.0 mm 0.00 in0.0 mm
11:10 PM 28.2°F-2.1°C 24.3°F-4.3°C 85% 6.0 mph WSW9.7 kmh WSW -- 29.57 in1001.4 mb 0.00 in0.0 mm 0.00 in0.0 mm 0.00 in0.0 mm
11:15 PM 28.1°F-2.2°C 24.1°F-4.4°C 85% 7.0 mph WSW11.3 kmh WSW -- 29.57 in1001.4 mb 0.00 in0.0 mm 0.00 in0.0 mm 0.00 in0.0 mm
11:20 PM 27.9°F-2.3°C 23.7°F-4.6°C 84% 6.0 mph W9.7 kmh W -- 29.57 in1001.4 mb 0.00 in0.0 mm 0.00 in0.0 mm 0.00 in0.0 mm
11:25 PM 27.6°F-2.4°C 23.5°F-4.7°C 84% 5.0 mph WSW8.0 kmh WSW -- 29.57 in1001.4 mb 0.00 in0.0 mm 0.00 in0.0 mm 0.00 in0.0 mm
11:30 PM 27.4°F-2.6°C 23.2°F-4.9°C 84% 6.0 mph WSW9.7 kmh WSW 11.0 mph17.7 kmh 29.57 in1001.4 mb 0.00 in0.0 mm 0.00 in0.0 mm 0.00 in0.0 mm
11:35 PM 27.1°F-2.7°C 23.0°F-5.0°C 84% 9.0 mph W14.5 kmh W -- 29.56 in1001.0 mb 0.00 in0.0 mm 0.00 in0.0 mm 0.00 in0.0 mm
11:40 PM 27.0°F-2.8°C 22.5°F-5.3°C 83% 9.0 mph W14.5 kmh W -- 29.56 in1001.0 mb 0.00 in0.0 mm 0.00 in0.0 mm 0.00 in0.0 mm
11:45 PM 27.0°F-2.8°C 22.5°F-5.3°C 83% 7.0 mph W11.3 kmh W -- 29.56 in1001.0 mb 0.00 in0.0 mm 0.00 in0.0 mm 0.00 in0.0 mm
11:50 PM 27.1°F-2.7°C 22.5°F-5.3°C 82% 11.0 mph W17.7 kmh W -- 29.56 in1001.0 mb 0.00 in0.0 mm 0.00 in0.0 mm 0.00 in0.0 mm
11:55 PM 27.0°F-2.8°C 22.3°F-5.4°C 82% 9.0 mph WSW14.5 kmh WSW 12.0 mph19.3 kmh 29.56 in1001.0 mb 0.00 in0.0 mm 0.00 in0.0 mm 0.00 in0.0 mm